Crossroads, NM

11:01 PM MST on February 11, 2016 (GMT -0700)
APRSWXNET | | Change Station
CLOSE
Current Station
Personal Weather Station
Location: Milnesand, NM
Elevation: 4117 ft
Nearby Weather Stations

Elev 4117 ft 33.65 °N, 103.27 °W | Updated 23 minutes ago

Partly Cloudy
Partly Cloudy
38 °F
Feels Like 33 °F
N
6
Wind Variable Wind from SW
Gusts 8.0 mph

Today
High -- | Low -- °F
--% Chance of Precip.
Yesterday
High -- | Low -- °F
Precip. -- in
Pressure 30.22 in
Visibility 10.0 miles
Clouds Clear
Windchill 33 °F
Dew Point 19 °F
Humidity 46%
Rainfall in
Snow Depth Not available.
6:41 AM 5:33 PM
Waxing Crescent, 17% visible
METAR KHOB 120555Z AUTO 00000KT 10SM CLR 03/M05 A3022 RMK AO2 TSNO
Pressure 30.22 in
Visibility 10.0 miles
Clouds Clear
Windchill 33 °F
Dew Point 19 °F
Humidity 46%
Rainfall in
Snow Depth Not available.
6:41 AM 5:33 PM
Waxing Crescent, 17% visible
METAR KHOB 120555Z AUTO 00000KT 10SM CLR 03/M05 A3022 RMK AO2 TSNO

10-Day Weather Forecast

Almanac

Astronomy

Feb. 11, 2016 Rise Set
Actual Time
Civil Twilight
Nautical Twilight
Astronomical Twilight
Moon
Length of Visible Light
Length of Day
Tomorrow will be .
, % of the Moon is Illuminated

Today's Extremes

State Highs State Lows

Community

WunderPhotos

Upload Photos

1,892,270 photos uploaded!

WunderBlog® & News

Nearby

Air Quality

  Air Quality AQ Index Pollutant
Not available.

Snow Depth

Station Depth Elevation

Earthquake Activity

City Distance Mag. Time & Date
Minimum magnitude displayed is 2.5.

Coastal Water Temperatures

Place Temperature

Stations

Nearby Weather Stations

Station Location Temp. Windchill Dew Point Humidity Wind Precip. Elev Updated Type
                   

Watches & Warnings

There are currently no watches in effect.